sensor_id;sensor_type;location;lat;lon;timestamp;P1;durP1;ratioP1;P2;durP2;ratioP2
70663;SDS011;58237;57.996;56.290;2022-10-31T00:01:53;4.20;;;1.83;;
70663;SDS011;58237;57.996;56.290;2022-10-31T00:04:18;4.43;;;1.92;;
70663;SDS011;58237;57.996;56.290;2022-10-31T00:06:44;6.40;;;2.80;;
70663;SDS011;58237;57.996;56.290;2022-10-31T00:09:09;3.92;;;1.50;;
70663;SDS011;58237;57.996;56.290;2022-10-31T00:11:35;4.20;;;1.60;;
70663;SDS011;58237;57.996;56.290;2022-10-31T00:14:00;5.13;;;1.80;;
70663;SDS011;58237;57.996;56.290;2022-10-31T00:16:26;3.58;;;1.55;;
70663;SDS011;58237;57.996;56.290;2022-10-31T00:18:53;4.47;;;1.92;;
70663;SDS011;58237;57.996;56.290;2022-10-31T00:21:19;4.28;;;1.50;;
70663;SDS011;58237;57.996;56.290;2022-10-31T00:23:44;4.20;;;1.58;;
70663;SDS011;58237;57.996;56.290;2022-10-31T00:26:10;3.83;;;1.70;;
70663;SDS011;58237;57.996;56.290;2022-10-31T00:28:35;4.10;;;1.90;;
70663;SDS011;58237;57.996;56.290;2022-10-31T00:31:01;4.30;;;1.90;;
70663;SDS011;58237;57.996;56.290;2022-10-31T00:33:26;3.78;;;1.63;;
70663;SDS011;58237;57.996;56.290;2022-10-31T00:35:52;5.65;;;2.47;;
70663;SDS011;58237;57.996;56.290;2022-10-31T00:38:17;3.95;;;1.58;;
70663;SDS011;58237;57.996;56.290;2022-10-31T00:40:42;3.17;;;1.50;;
70663;SDS011;58237;57.996;56.290;2022-10-31T00:43:08;4.03;;;1.65;;
70663;SDS011;58237;57.996;56.290;2022-10-31T00:45:33;5.60;;;2.25;;
70663;SDS011;58237;57.996;56.290;2022-10-31T00:47:58;4.85;;;1.80;;
70663;SDS011;58237;57.996;56.290;2022-10-31T00:50:24;3.58;;;1.60;;
70663;SDS011;58237;57.996;56.290;2022-10-31T00:52:49;3.65;;;1.50;;
70663;SDS011;58237;57.996;56.290;2022-10-31T00:55:14;3.60;;;1.60;;
70663;SDS011;58237;57.996;56.290;2022-10-31T00:57:40;4.15;;;1.80;;
70663;SDS011;58237;57.996;56.290;2022-10-31T01:00:05;3.85;;;1.83;;
70663;SDS011;58237;57.996;56.290;2022-10-31T01:02:31;3.58;;;1.65;;
70663;SDS011;58237;57.996;56.290;2022-10-31T01:04:56;4.28;;;1.75;;
70663;SDS011;58237;57.996;56.290;2022-10-31T01:07:21;5.78;;;2.20;;
70663;SDS011;58237;57.996;56.290;2022-10-31T01:09:47;3.85;;;1.50;;
70663;SDS011;58237;57.996;56.290;2022-10-31T01:12:12;3.38;;;1.58;;
70663;SDS011;58237;57.996;56.290;2022-10-31T01:14:37;4.05;;;1.83;;
70663;SDS011;58237;57.996;56.290;2022-10-31T01:17:03;3.55;;;1.52;;
70663;SDS011;58237;57.996;56.290;2022-10-31T01:19:28;4.38;;;1.67;;
70663;SDS011;58237;57.996;56.290;2022-10-31T01:21:54;4.18;;;2.00;;
70663;SDS011;58237;57.996;56.290;2022-10-31T01:24:20;3.58;;;1.70;;
70663;SDS011;58237;57.996;56.290;2022-10-31T01:26:45;3.80;;;1.73;;
70663;SDS011;58237;57.996;56.290;2022-10-31T01:29:10;2.53;;;1.10;;
70663;SDS011;58237;57.996;56.290;2022-10-31T01:31:36;3.65;;;1.60;;
70663;SDS011;58237;57.996;56.290;2022-10-31T01:34:02;3.95;;;1.33;;
70663;SDS011;58237;57.996;56.290;2022-10-31T01:36:29;3.88;;;1.65;;
70663;SDS011;58237;57.996;56.290;2022-10-31T01:38:58;3.55;;;1.52;;
70663;SDS011;58237;57.996;56.290;2022-10-31T01:41:25;4.78;;;1.40;;
70663;SDS011;58237;57.996;56.290;2022-10-31T01:43:55;3.85;;;1.63;;
70663;SDS011;58237;57.996;56.290;2022-10-31T01:46:25;3.20;;;1.55;;
70663;SDS011;58237;57.996;56.290;2022-10-31T01:48:53;3.25;;;1.42;;
70663;SDS011;58237;57.996;56.290;2022-10-31T01:51:19;4.57;;;1.40;;
70663;SDS011;58237;57.996;56.290;2022-10-31T01:53:45;4.35;;;1.92;;
70663;SDS011;58237;57.996;56.290;2022-10-31T01:56:11;2.63;;;1.17;;
70663;SDS011;58237;57.996;56.290;2022-10-31T01:58:38;4.72;;;1.90;;
70663;SDS011;58237;57.996;56.290;2022-10-31T02:01:04;3.15;;;1.48;;
70663;SDS011;58237;57.996;56.290;2022-10-31T02:03:29;3.67;;;1.35;;
70663;SDS011;58237;57.996;56.290;2022-10-31T02:05:55;3.67;;;1.48;;
70663;SDS011;58237;57.996;56.290;2022-10-31T02:10:47;2.67;;;1.25;;
70663;SDS011;58237;57.996;56.290;2022-10-31T02:13:12;3.10;;;1.40;;
70663;SDS011;58237;57.996;56.290;2022-10-31T02:15:38;3.28;;;1.20;;
70663;SDS011;58237;57.996;56.290;2022-10-31T02:18:04;3.13;;;1.38;;
70663;SDS011;58237;57.996;56.290;2022-10-31T02:20:42;2.55;;;1.20;;
70663;SDS011;58237;57.996;56.290;2022-10-31T02:41:04;3.38;;;1.40;;
70663;SDS011;58237;57.996;56.290;2022-10-31T02:43:36;2.50;;;1.23;;
70663;SDS011;58237;57.996;56.290;2022-10-31T02:48:31;4.13;;;1.60;;
70663;SDS011;58237;57.996;56.290;2022-10-31T02:50:59;2.92;;;1.20;;
70663;SDS011;58237;57.996;56.290;2022-10-31T02:53:25;4.43;;;1.90;;
70663;SDS011;58237;57.996;56.290;2022-10-31T02:55:54;4.40;;;1.80;;
70663;SDS011;58237;57.996;56.290;2022-10-31T02:58:22;4.03;;;1.80;;
70663;SDS011;58237;57.996;56.290;2022-10-31T03:01:02;4.22;;;1.60;;
70663;SDS011;58237;57.996;56.290;2022-10-31T03:03:44;3.00;;;1.30;;
70663;SDS011;58237;57.996;56.290;2022-10-31T03:09:01;4.35;;;1.80;;
70663;SDS011;58237;57.996;56.290;2022-10-31T03:11:29;3.88;;;1.40;;
70663;SDS011;58237;57.996;56.290;2022-10-31T03:14:00;4.07;;;1.60;;
70663;SDS011;58237;57.996;56.290;2022-10-31T03:19:05;5.20;;;1.65;;
70663;SDS011;58237;57.996;56.290;2022-10-31T03:23:58;3.25;;;1.83;;
70663;SDS011;58237;57.996;56.290;2022-10-31T03:26:24;3.72;;;1.38;;
70663;SDS011;58237;57.996;56.290;2022-10-31T03:28:54;4.75;;;1.90;;
70663;SDS011;58237;57.996;56.290;2022-10-31T03:31:21;3.60;;;1.50;;
70663;SDS011;58237;57.996;56.290;2022-10-31T03:33:48;5.10;;;1.95;;
70663;SDS011;58237;57.996;56.290;2022-10-31T03:36:15;4.45;;;1.80;;
70663;SDS011;58237;57.996;56.290;2022-10-31T03:38:41;4.72;;;1.50;;
70663;SDS011;58237;57.996;56.290;2022-10-31T03:41:10;3.78;;;1.30;;
70663;SDS011;58237;57.996;56.290;2022-10-31T03:43:37;3.17;;;1.38;;
70663;SDS011;58237;57.996;56.290;2022-10-31T03:46:04;2.53;;;1.10;;
70663;SDS011;58237;57.996;56.290;2022-10-31T03:48:29;5.63;;;1.95;;
70663;SDS011;58237;57.996;56.290;2022-10-31T03:50:59;3.70;;;1.83;;
70663;SDS011;58237;57.996;56.290;2022-10-31T03:56:07;4.22;;;1.33;;
70663;SDS011;58237;57.996;56.290;2022-10-31T03:58:36;5.63;;;1.77;;
70663;SDS011;58237;57.996;56.290;2022-10-31T04:01:02;4.38;;;1.60;;
70663;SDS011;58237;57.996;56.290;2022-10-31T04:03:30;3.58;;;1.60;;
70663;SDS011;58237;57.996;56.290;2022-10-31T04:05:56;3.30;;;1.30;;
70663;SDS011;58237;57.996;56.290;2022-10-31T04:08:24;3.10;;;1.42;;
70663;SDS011;58237;57.996;56.290;2022-10-31T04:10:51;3.35;;;1.42;;
70663;SDS011;58237;57.996;56.290;2022-10-31T04:13:19;3.88;;;1.77;;
70663;SDS011;58237;57.996;56.290;2022-10-31T04:15:46;3.85;;;1.55;;
70663;SDS011;58237;57.996;56.290;2022-10-31T04:18:13;3.35;;;1.40;;
70663;SDS011;58237;57.996;56.290;2022-10-31T04:20:39;5.68;;;1.60;;
70663;SDS011;58237;57.996;56.290;2022-10-31T04:23:05;4.35;;;1.67;;
70663;SDS011;58237;57.996;56.290;2022-10-31T04:25:33;4.80;;;1.80;;
70663;SDS011;58237;57.996;56.290;2022-10-31T04:27:58;3.42;;;1.40;;
70663;SDS011;58237;57.996;56.290;2022-10-31T04:30:24;3.65;;;1.30;;
70663;SDS011;58237;57.996;56.290;2022-10-31T04:32:49;4.30;;;1.70;;
70663;SDS011;58237;57.996;56.290;2022-10-31T04:35:15;5.03;;;2.20;;
70663;SDS011;58237;57.996;56.290;2022-10-31T04:37:40;3.95;;;1.83;;
70663;SDS011;58237;57.996;56.290;2022-10-31T04:40:05;5.47;;;2.42;;
70663;SDS011;58237;57.996;56.290;2022-10-31T04:42:31;6.53;;;2.60;;
70663;SDS011;58237;57.996;56.290;2022-10-31T04:44:56;4.85;;;2.28;;
70663;SDS011;58237;57.996;56.290;2022-10-31T04:47:22;5.05;;;2.60;;
70663;SDS011;58237;57.996;56.290;2022-10-31T04:49:47;6.03;;;2.03;;
70663;SDS011;58237;57.996;56.290;2022-10-31T04:52:13;5.15;;;2.00;;
70663;SDS011;58237;57.996;56.290;2022-10-31T04:54:38;4.47;;;1.88;;
70663;SDS011;58237;57.996;56.290;2022-10-31T04:57:03;5.03;;;1.92;;
70663;SDS011;58237;57.996;56.290;2022-10-31T04:59:29;5.35;;;1.85;;
70663;SDS011;58237;57.996;56.290;2022-10-31T05:01:54;4.57;;;2.00;;
70663;SDS011;58237;57.996;56.290;2022-10-31T05:04:19;4.00;;;1.67;;
70663;SDS011;58237;57.996;56.290;2022-10-31T05:06:45;3.45;;;1.40;;
70663;SDS011;58237;57.996;56.290;2022-10-31T05:09:10;3.63;;;1.60;;
70663;SDS011;58237;57.996;56.290;2022-10-31T05:11:35;5.22;;;2.00;;
70663;SDS011;58237;57.996;56.290;2022-10-31T05:14:01;4.28;;;2.20;;
70663;SDS011;58237;57.996;56.290;2022-10-31T05:16:26;4.38;;;1.70;;
70663;SDS011;58237;57.996;56.290;2022-10-31T05:18:51;5.50;;;1.73;;
70663;SDS011;58237;57.996;56.290;2022-10-31T05:21:17;5.85;;;2.00;;
70663;SDS011;58237;57.996;56.290;2022-10-31T05:23:42;4.57;;;1.80;;
70663;SDS011;58237;57.996;56.290;2022-10-31T05:26:07;5.00;;;2.53;;
70663;SDS011;58237;57.996;56.290;2022-10-31T05:28:33;3.58;;;1.63;;
70663;SDS011;58237;57.996;56.290;2022-10-31T05:30:58;3.25;;;1.73;;
70663;SDS011;58237;57.996;56.290;2022-10-31T05:33:23;3.88;;;1.70;;
70663;SDS011;58237;57.996;56.290;2022-10-31T05:35:49;5.28;;;2.05;;
70663;SDS011;58237;57.996;56.290;2022-10-31T05:38:14;4.25;;;1.63;;
70663;SDS011;58237;57.996;56.290;2022-10-31T05:40:39;5.05;;;2.22;;
70663;SDS011;58237;57.996;56.290;2022-10-31T05:43:05;5.15;;;1.70;;
70663;SDS011;58237;57.996;56.290;2022-10-31T05:45:30;4.57;;;1.58;;
70663;SDS011;58237;57.996;56.290;2022-10-31T05:47:56;2.75;;;1.20;;
70663;SDS011;58237;57.996;56.290;2022-10-31T05:50:22;3.95;;;1.65;;
70663;SDS011;58237;57.996;56.290;2022-10-31T05:52:53;3.38;;;1.45;;
70663;SDS011;58237;57.996;56.290;2022-10-31T05:55:19;3.95;;;1.98;;
70663;SDS011;58237;57.996;56.290;2022-10-31T05:57:44;4.15;;;1.90;;
70663;SDS011;58237;57.996;56.290;2022-10-31T06:00:09;4.53;;;2.20;;
70663;SDS011;58237;57.996;56.290;2022-10-31T06:02:35;3.63;;;1.50;;
70663;SDS011;58237;57.996;56.290;2022-10-31T06:05:00;5.20;;;2.15;;
70663;SDS011;58237;57.996;56.290;2022-10-31T06:07:26;5.38;;;2.13;;
70663;SDS011;58237;57.996;56.290;2022-10-31T06:09:53;3.08;;;1.42;;
70663;SDS011;58237;57.996;56.290;2022-10-31T06:12:18;3.90;;;1.70;;
70663;SDS011;58237;57.996;56.290;2022-10-31T06:14:44;5.32;;;1.98;;
70663;SDS011;58237;57.996;56.290;2022-10-31T06:17:09;5.43;;;2.08;;
70663;SDS011;58237;57.996;56.290;2022-10-31T06:19:34;6.93;;;2.70;;
70663;SDS011;58237;57.996;56.290;2022-10-31T06:22:00;4.57;;;1.80;;
70663;SDS011;58237;57.996;56.290;2022-10-31T06:24:25;4.22;;;1.60;;
70663;SDS011;58237;57.996;56.290;2022-10-31T06:26:50;5.43;;;2.35;;
70663;SDS011;58237;57.996;56.290;2022-10-31T06:29:16;5.18;;;2.10;;
70663;SDS011;58237;57.996;56.290;2022-10-31T06:31:41;5.93;;;2.17;;
70663;SDS011;58237;57.996;56.290;2022-10-31T06:34:06;4.28;;;1.85;;
70663;SDS011;58237;57.996;56.290;2022-10-31T06:36:32;4.32;;;1.60;;
70663;SDS011;58237;57.996;56.290;2022-10-31T06:38:57;4.95;;;2.03;;
70663;SDS011;58237;57.996;56.290;2022-10-31T06:41:22;6.47;;;1.80;;
70663;SDS011;58237;57.996;56.290;2022-10-31T06:43:48;4.30;;;1.75;;
70663;SDS011;58237;57.996;56.290;2022-10-31T06:46:13;5.40;;;2.25;;
70663;SDS011;58237;57.996;56.290;2022-10-31T06:48:40;7.85;;;3.13;;
70663;SDS011;58237;57.996;56.290;2022-10-31T06:51:05;6.30;;;2.55;;
70663;SDS011;58237;57.996;56.290;2022-10-31T06:53:30;4.30;;;1.83;;
70663;SDS011;58237;57.996;56.290;2022-10-31T06:55:56;5.63;;;2.05;;
70663;SDS011;58237;57.996;56.290;2022-10-31T06:58:21;4.95;;;2.00;;
70663;SDS011;58237;57.996;56.290;2022-10-31T07:00:47;5.60;;;2.28;;
70663;SDS011;58237;57.996;56.290;2022-10-31T07:03:12;5.03;;;1.73;;
70663;SDS011;58237;57.996;56.290;2022-10-31T07:05:38;6.50;;;1.90;;
70663;SDS011;58237;57.996;56.290;2022-10-31T07:08:04;7.57;;;3.13;;
70663;SDS011;58237;57.996;56.290;2022-10-31T07:10:31;5.22;;;2.20;;
70663;SDS011;58237;57.996;56.290;2022-10-31T07:12:57;6.05;;;2.30;;
70663;SDS011;58237;57.996;56.290;2022-10-31T07:15:23;5.50;;;2.08;;
70663;SDS011;58237;57.996;56.290;2022-10-31T07:17:48;5.88;;;1.80;;
70663;SDS011;58237;57.996;56.290;2022-10-31T07:20:14;7.53;;;3.50;;
70663;SDS011;58237;57.996;56.290;2022-10-31T07:22:39;6.40;;;2.67;;
70663;SDS011;58237;57.996;56.290;2022-10-31T07:25:05;5.60;;;2.10;;
70663;SDS011;58237;57.996;56.290;2022-10-31T07:27:40;6.50;;;3.35;;
70663;SDS011;58237;57.996;56.290;2022-10-31T07:30:06;8.13;;;3.22;;
70663;SDS011;58237;57.996;56.290;2022-10-31T07:32:44;7.13;;;3.13;;
70663;SDS011;58237;57.996;56.290;2022-10-31T07:35:11;7.07;;;2.72;;
70663;SDS011;58237;57.996;56.290;2022-10-31T07:37:36;5.25;;;2.17;;
70663;SDS011;58237;57.996;56.290;2022-10-31T07:40:02;5.57;;;2.38;;
70663;SDS011;58237;57.996;56.290;2022-10-31T07:42:28;5.50;;;1.92;;
70663;SDS011;58237;57.996;56.290;2022-10-31T07:44:54;6.47;;;2.75;;
70663;SDS011;58237;57.996;56.290;2022-10-31T07:47:19;6.10;;;2.95;;
70663;SDS011;58237;57.996;56.290;2022-10-31T07:49:44;6.57;;;2.55;;
70663;SDS011;58237;57.996;56.290;2022-10-31T07:52:10;5.95;;;2.33;;
70663;SDS011;58237;57.996;56.290;2022-10-31T07:54:35;6.25;;;2.10;;
70663;SDS011;58237;57.996;56.290;2022-10-31T07:57:00;4.72;;;1.80;;
70663;SDS011;58237;57.996;56.290;2022-10-31T07:59:26;4.57;;;1.80;;
70663;SDS011;58237;57.996;56.290;2022-10-31T08:01:51;5.00;;;1.50;;
70663;SDS011;58237;57.996;56.290;2022-10-31T08:04:16;7.43;;;2.40;;
70663;SDS011;58237;57.996;56.290;2022-10-31T08:06:42;6.38;;;2.60;;
70663;SDS011;58237;57.996;56.290;2022-10-31T08:09:07;6.57;;;2.60;;
70663;SDS011;58237;57.996;56.290;2022-10-31T08:11:33;6.28;;;2.00;;
70663;SDS011;58237;57.996;56.290;2022-10-31T08:13:58;6.90;;;3.00;;
70663;SDS011;58237;57.996;56.290;2022-10-31T08:16:23;6.80;;;2.28;;
70663;SDS011;58237;57.996;56.290;2022-10-31T08:18:48;6.53;;;2.22;;
70663;SDS011;58237;57.996;56.290;2022-10-31T08:21:14;5.65;;;1.98;;
70663;SDS011;58237;57.996;56.290;2022-10-31T08:23:39;6.60;;;2.75;;
70663;SDS011;58237;57.996;56.290;2022-10-31T08:26:04;4.45;;;2.15;;
70663;SDS011;58237;57.996;56.290;2022-10-31T08:28:30;6.57;;;2.60;;
70663;SDS011;58237;57.996;56.290;2022-10-31T08:30:56;5.85;;;2.63;;
70663;SDS011;58237;57.996;56.290;2022-10-31T08:33:22;5.57;;;2.10;;
70663;SDS011;58237;57.996;56.290;2022-10-31T08:35:47;5.25;;;2.00;;
70663;SDS011;58237;57.996;56.290;2022-10-31T08:38:13;5.50;;;1.90;;
70663;SDS011;58237;57.996;56.290;2022-10-31T08:40:38;5.68;;;2.25;;
70663;SDS011;58237;57.996;56.290;2022-10-31T08:43:14;8.38;;;2.67;;
70663;SDS011;58237;57.996;56.290;2022-10-31T08:45:39;5.90;;;2.53;;
70663;SDS011;58237;57.996;56.290;2022-10-31T08:48:06;6.45;;;2.50;;
70663;SDS011;58237;57.996;56.290;2022-10-31T08:50:32;7.30;;;2.55;;
70663;SDS011;58237;57.996;56.290;2022-10-31T08:53:01;5.25;;;1.80;;
70663;SDS011;58237;57.996;56.290;2022-10-31T08:55:26;6.78;;;2.42;;
70663;SDS011;58237;57.996;56.290;2022-10-31T08:57:55;6.75;;;2.35;;
70663;SDS011;58237;57.996;56.290;2022-10-31T09:00:20;4.78;;;2.10;;
70663;SDS011;58237;57.996;56.290;2022-10-31T09:02:46;6.55;;;2.95;;
70663;SDS011;58237;57.996;56.290;2022-10-31T09:05:11;4.78;;;1.83;;
70663;SDS011;58237;57.996;56.290;2022-10-31T09:07:36;3.92;;;1.77;;
70663;SDS011;58237;57.996;56.290;2022-10-31T09:10:02;4.13;;;1.70;;
70663;SDS011;58237;57.996;56.290;2022-10-31T09:12:28;3.45;;;1.40;;
70663;SDS011;58237;57.996;56.290;2022-10-31T09:14:54;5.95;;;1.90;;
70663;SDS011;58237;57.996;56.290;2022-10-31T09:17:19;4.38;;;1.85;;
70663;SDS011;58237;57.996;56.290;2022-10-31T09:19:44;4.93;;;1.65;;
70663;SDS011;58237;57.996;56.290;2022-10-31T09:22:10;4.05;;;1.52;;
70663;SDS011;58237;57.996;56.290;2022-10-31T09:24:35;3.72;;;1.35;;
70663;SDS011;58237;57.996;56.290;2022-10-31T09:27:00;4.13;;;1.60;;
70663;SDS011;58237;57.996;56.290;2022-10-31T09:29:26;5.28;;;2.13;;
70663;SDS011;58237;57.996;56.290;2022-10-31T09:31:51;6.13;;;1.90;;
70663;SDS011;58237;57.996;56.290;2022-10-31T09:34:16;4.50;;;1.77;;
70663;SDS011;58237;57.996;56.290;2022-10-31T09:36:42;3.80;;;1.50;;
70663;SDS011;58237;57.996;56.290;2022-10-31T09:39:07;5.55;;;2.15;;
70663;SDS011;58237;57.996;56.290;2022-10-31T09:41:42;5.00;;;1.80;;
70663;SDS011;58237;57.996;56.290;2022-10-31T09:44:30;6.97;;;2.17;;
70663;SDS011;58237;57.996;56.290;2022-10-31T09:47:19;5.72;;;1.83;;
70663;SDS011;58237;57.996;56.290;2022-10-31T09:52:32;3.78;;;1.63;;
70663;SDS011;58237;57.996;56.290;2022-10-31T09:54:59;4.03;;;1.63;;
70663;SDS011;58237;57.996;56.290;2022-10-31T09:57:27;6.55;;;2.13;;
70663;SDS011;58237;57.996;56.290;2022-10-31T09:59:53;4.72;;;1.67;;
70663;SDS011;58237;57.996;56.290;2022-10-31T10:04:47;5.93;;;2.10;;
70663;SDS011;58237;57.996;56.290;2022-10-31T10:09:42;4.70;;;1.67;;
70663;SDS011;58237;57.996;56.290;2022-10-31T10:12:16;4.57;;;1.48;;
70663;SDS011;58237;57.996;56.290;2022-10-31T10:17:18;4.00;;;1.77;;
70663;SDS011;58237;57.996;56.290;2022-10-31T10:22:31;4.03;;;1.48;;
70663;SDS011;58237;57.996;56.290;2022-10-31T10:25:14;4.30;;;1.48;;
70663;SDS011;58237;57.996;56.290;2022-10-31T10:30:18;8.05;;;2.83;;
70663;SDS011;58237;57.996;56.290;2022-10-31T10:37:41;5.10;;;1.60;;
70663;SDS011;58237;57.996;56.290;2022-10-31T10:40:13;5.22;;;1.85;;
70663;SDS011;58237;57.996;56.290;2022-10-31T10:42:38;6.90;;;2.70;;
70663;SDS011;58237;57.996;56.290;2022-10-31T10:45:10;6.47;;;2.65;;
70663;SDS011;58237;57.996;56.290;2022-10-31T10:47:42;7.10;;;3.33;;
70663;SDS011;58237;57.996;56.290;2022-10-31T10:55:16;7.10;;;2.90;;
70663;SDS011;58237;57.996;56.290;2022-10-31T11:00:21;7.43;;;2.33;;
70663;SDS011;58237;57.996;56.290;2022-10-31T11:02:47;6.68;;;2.40;;
70663;SDS011;58237;57.996;56.290;2022-10-31T11:07:46;5.68;;;2.17;;
70663;SDS011;58237;57.996;56.290;2022-10-31T11:10:13;5.47;;;1.92;;
70663;SDS011;58237;57.996;56.290;2022-10-31T11:12:38;4.60;;;1.77;;
70663;SDS011;58237;57.996;56.290;2022-10-31T11:15:16;6.63;;;2.35;;
70663;SDS011;58237;57.996;56.290;2022-10-31T11:17:46;5.53;;;1.98;;
70663;SDS011;58237;57.996;56.290;2022-10-31T11:22:37;5.47;;;2.08;;
70663;SDS011;58237;57.996;56.290;2022-10-31T11:25:21;4.40;;;1.50;;
70663;SDS011;58237;57.996;56.290;2022-10-31T11:27:47;5.78;;;2.13;;
70663;SDS011;58237;57.996;56.290;2022-10-31T11:30:13;5.00;;;2.00;;
70663;SDS011;58237;57.996;56.290;2022-10-31T11:32:43;4.07;;;1.73;;
70663;SDS011;58237;57.996;56.290;2022-10-31T11:35:11;4.80;;;1.95;;
70663;SDS011;58237;57.996;56.290;2022-10-31T11:37:42;6.93;;;2.60;;
70663;SDS011;58237;57.996;56.290;2022-10-31T11:40:15;6.70;;;2.58;;
70663;SDS011;58237;57.996;56.290;2022-10-31T11:42:41;6.68;;;2.50;;
70663;SDS011;58237;57.996;56.290;2022-10-31T11:45:14;6.68;;;2.78;;
70663;SDS011;58237;57.996;56.290;2022-10-31T11:47:41;7.10;;;2.50;;
70663;SDS011;58237;57.996;56.290;2022-10-31T11:50:10;8.75;;;3.38;;
70663;SDS011;58237;57.996;56.290;2022-10-31T11:52:37;8.45;;;3.28;;
70663;SDS011;58237;57.996;56.290;2022-10-31T11:57:45;7.15;;;2.30;;
70663;SDS011;58237;57.996;56.290;2022-10-31T12:03:01;6.75;;;2.40;;
70663;SDS011;58237;57.996;56.290;2022-10-31T12:05:29;5.72;;;2.20;;
70663;SDS011;58237;57.996;56.290;2022-10-31T12:07:55;12.27;;;3.53;;
70663;SDS011;58237;57.996;56.290;2022-10-31T12:10:21;5.82;;;2.30;;
70663;SDS011;58237;57.996;56.290;2022-10-31T12:15:33;6.55;;;2.97;;
70663;SDS011;58237;57.996;56.290;2022-10-31T12:18:22;6.95;;;3.58;;
70663;SDS011;58237;57.996;56.290;2022-10-31T12:20:54;6.22;;;2.53;;
70663;SDS011;58237;57.996;56.290;2022-10-31T12:41:30;5.30;;;1.60;;
70663;SDS011;58237;57.996;56.290;2022-10-31T12:44:05;6.15;;;2.33;;
70663;SDS011;58237;57.996;56.290;2022-10-31T12:49:05;6.68;;;2.25;;
70663;SDS011;58237;57.996;56.290;2022-10-31T12:54:17;5.80;;;2.45;;
70663;SDS011;58237;57.996;56.290;2022-10-31T13:02:10;5.80;;;2.33;;
70663;SDS011;58237;57.996;56.290;2022-10-31T13:04:55;7.78;;;2.78;;
70663;SDS011;58237;57.996;56.290;2022-10-31T13:07:29;7.87;;;3.00;;
70663;SDS011;58237;57.996;56.290;2022-10-31T13:12:21;7.95;;;3.42;;
70663;SDS011;58237;57.996;56.290;2022-10-31T13:14:55;7.15;;;2.85;;
70663;SDS011;58237;57.996;56.290;2022-10-31T13:17:28;8.95;;;3.55;;
70663;SDS011;58237;57.996;56.290;2022-10-31T13:22:24;7.43;;;3.33;;
70663;SDS011;58237;57.996;56.290;2022-10-31T13:24:56;8.55;;;3.60;;
70663;SDS011;58237;57.996;56.290;2022-10-31T13:27:23;7.57;;;2.95;;
70663;SDS011;58237;57.996;56.290;2022-10-31T13:32:14;6.70;;;2.70;;
70663;SDS011;58237;57.996;56.290;2022-10-31T13:34:42;5.28;;;2.00;;
70663;SDS011;58237;57.996;56.290;2022-10-31T13:42:19;6.60;;;2.58;;
70663;SDS011;58237;57.996;56.290;2022-10-31T13:44:44;6.55;;;2.67;;
70663;SDS011;58237;57.996;56.290;2022-10-31T13:47:20;6.55;;;2.25;;
70663;SDS011;58237;57.996;56.290;2022-10-31T13:49:46;5.65;;;2.17;;
70663;SDS011;58237;57.996;56.290;2022-10-31T13:52:13;7.75;;;3.00;;
70663;SDS011;58237;57.996;56.290;2022-10-31T13:54:40;7.03;;;2.47;;
70663;SDS011;58237;57.996;56.290;2022-10-31T13:57:51;5.25;;;2.50;;
70663;SDS011;58237;57.996;56.290;2022-10-31T13:59:52;5.40;;;1.92;;
70663;SDS011;58237;57.996;56.290;2022-10-31T14:02:20;6.43;;;2.45;;
70663;SDS011;58237;57.996;56.290;2022-10-31T14:04:48;7.20;;;2.83;;
70663;SDS011;58237;57.996;56.290;2022-10-31T14:07:15;6.22;;;2.22;;
70663;SDS011;58237;57.996;56.290;2022-10-31T14:09:52;6.30;;;2.58;;
70663;SDS011;58237;57.996;56.290;2022-10-31T14:15:04;7.13;;;2.63;;
70663;SDS011;58237;57.996;56.290;2022-10-31T14:17:33;7.40;;;3.00;;
70663;SDS011;58237;57.996;56.290;2022-10-31T14:22:36;8.77;;;3.40;;
70663;SDS011;58237;57.996;56.290;2022-10-31T14:25:24;7.00;;;2.97;;
70663;SDS011;58237;57.996;56.290;2022-10-31T14:27:48;6.78;;;3.17;;
70663;SDS011;58237;57.996;56.290;2022-10-31T14:30:14;8.93;;;3.78;;
70663;SDS011;58237;57.996;56.290;2022-10-31T14:32:39;8.68;;;3.95;;
70663;SDS011;58237;57.996;56.290;2022-10-31T14:35:09;6.50;;;2.65;;
70663;SDS011;58237;57.996;56.290;2022-10-31T14:38:00;7.72;;;3.00;;
70663;SDS011;58237;57.996;56.290;2022-10-31T14:43:22;8.27;;;2.88;;
70663;SDS011;58237;57.996;56.290;2022-10-31T14:48:52;7.80;;;3.15;;
70663;SDS011;58237;57.996;56.290;2022-10-31T14:51:23;6.90;;;2.67;;
70663;SDS011;58237;57.996;56.290;2022-10-31T14:53:51;7.90;;;2.95;;
70663;SDS011;58237;57.996;56.290;2022-10-31T14:56:19;8.38;;;3.13;;
70663;SDS011;58237;57.996;56.290;2022-10-31T14:58:46;7.13;;;3.15;;
70663;SDS011;58237;57.996;56.290;2022-10-31T15:01:23;8.85;;;3.45;;
70663;SDS011;58237;57.996;56.290;2022-10-31T15:03:48;6.70;;;2.70;;
70663;SDS011;58237;57.996;56.290;2022-10-31T15:06:15;6.60;;;2.03;;
70663;SDS011;58237;57.996;56.290;2022-10-31T15:08:45;7.28;;;2.92;;
70663;SDS011;58237;57.996;56.290;2022-10-31T15:13:41;8.27;;;2.78;;
70663;SDS011;58237;57.996;56.290;2022-10-31T15:16:07;7.03;;;2.63;;
70663;SDS011;58237;57.996;56.290;2022-10-31T15:18:34;8.88;;;2.92;;
70663;SDS011;58237;57.996;56.290;2022-10-31T15:21:00;9.15;;;3.28;;
70663;SDS011;58237;57.996;56.290;2022-10-31T15:23:26;8.77;;;3.45;;
70663;SDS011;58237;57.996;56.290;2022-10-31T15:25:57;6.10;;;2.10;;
70663;SDS011;58237;57.996;56.290;2022-10-31T15:28:24;7.43;;;2.72;;
70663;SDS011;58237;57.996;56.290;2022-10-31T15:30:53;7.22;;;2.83;;
70663;SDS011;58237;57.996;56.290;2022-10-31T15:33:20;7.07;;;2.75;;
70663;SDS011;58237;57.996;56.290;2022-10-31T15:35:54;7.60;;;3.03;;
70663;SDS011;58237;57.996;56.290;2022-10-31T15:38:19;6.93;;;2.60;;
70663;SDS011;58237;57.996;56.290;2022-10-31T15:40:51;5.85;;;2.40;;
70663;SDS011;58237;57.996;56.290;2022-10-31T15:43:16;7.65;;;2.65;;
70663;SDS011;58237;57.996;56.290;2022-10-31T15:45:42;6.97;;;2.97;;
70663;SDS011;58237;57.996;56.290;2022-10-31T15:48:17;6.30;;;2.10;;
70663;SDS011;58237;57.996;56.290;2022-10-31T15:53:18;6.95;;;2.60;;
70663;SDS011;58237;57.996;56.290;2022-10-31T15:56:04;8.80;;;2.85;;
70663;SDS011;58237;57.996;56.290;2022-10-31T15:58:32;7.38;;;2.55;;
70663;SDS011;58237;57.996;56.290;2022-10-31T16:01:02;5.90;;;2.10;;
70663;SDS011;58237;57.996;56.290;2022-10-31T16:03:31;5.05;;;2.25;;
70663;SDS011;58237;57.996;56.290;2022-10-31T16:05:58;7.03;;;2.85;;
70663;SDS011;58237;57.996;56.290;2022-10-31T16:10:56;6.28;;;2.38;;
70663;SDS011;58237;57.996;56.290;2022-10-31T16:13:28;7.90;;;2.92;;
70663;SDS011;58237;57.996;56.290;2022-10-31T16:15:55;7.82;;;2.97;;
70663;SDS011;58237;57.996;56.290;2022-10-31T16:18:21;6.07;;;2.55;;
70663;SDS011;58237;57.996;56.290;2022-10-31T16:20:48;6.13;;;2.25;;
70663;SDS011;58237;57.996;56.290;2022-10-31T16:23:14;7.28;;;2.95;;
70663;SDS011;58237;57.996;56.290;2022-10-31T16:25:41;12.13;;;2.85;;
70663;SDS011;58237;57.996;56.290;2022-10-31T16:28:13;6.97;;;2.78;;
70663;SDS011;58237;57.996;56.290;2022-10-31T16:30:41;9.65;;;3.88;;
70663;SDS011;58237;57.996;56.290;2022-10-31T16:35:50;7.28;;;2.88;;
70663;SDS011;58237;57.996;56.290;2022-10-31T16:38:15;9.70;;;3.80;;
70663;SDS011;58237;57.996;56.290;2022-10-31T16:40:41;10.07;;;3.13;;
70663;SDS011;58237;57.996;56.290;2022-10-31T16:43:13;5.25;;;2.15;;
70663;SDS011;58237;57.996;56.290;2022-10-31T16:45:43;7.70;;;2.80;;
70663;SDS011;58237;57.996;56.290;2022-10-31T16:48:11;9.75;;;3.70;;
70663;SDS011;58237;57.996;56.290;2022-10-31T16:50:36;8.52;;;3.30;;
70663;SDS011;58237;57.996;56.290;2022-10-31T16:53:02;6.72;;;2.30;;